logo
Rechercher aéroport 
image banner adimage banner adimage banner ad
image banner ad

LZBIDO - Bidovce

Situé à Košice, Slovakia

ICAO - , IATA -

Données fournies par Airmate  

Information générale

Coordonnées: N48°44'34" E21°26'54"
Élévation : 984 feet MSL.
Variation magnétique : 0° East
Voir autres Aéroports à Košice

Données opérationnelles

Special qualification required
Heure actuelle UTC:
Heure actuelle locale:
Météo à : LZKZ - Kosice ( 18 km )
METAR: LZKZ 201300Z 35009KT 9999 FEW035CB SCT044 19/13 Q1013 TEMPO -TSRAGR
TAF: TAF LZKZ 201115Z 2012/2112 02007KT 9999 SCT035 TEMPO 2012/2018 20015G25KT 3500 TSRA FEW030 SCT035CB BKN040 TEMPO 2020/2106 1300 BCFG BR BKN002 BECMG 2105/2107 08009KT
Voir NOTAMs / SUP AIP / TFR affectant cet aéroport [VIEW]
Fréquences de communication: [VIEW]

Pistes:

Identifiant RWYQFULongueur (ft)Largeur (ft)SurfaceLDA (ft)
17166°155882GRASS1312
35 ASPH131239ASPH
35346°00UNK1312
35 GRASS155882GRASS
17G166°00UNK1558
35G346°00UNK1558

Coordonnées de l'aéroport

Adresse: Košice Slovakia

Vue satellite de LZBIDO